Terminal Aerodrome Forecast
Issued by NWS Melbourne, FL

Home | Current Version | Previous Version | Text Only | Print | Product List | Glossary On
Versions: 1 2 3 4 5 6 7 8 9 10 11 12 13 14 15 16 17 18 19 20
000
FTUS42 KMLB 251821 AAA
TAFVRB
TAF AMD
KVRB 251821Z 2518/2618 30011KT P6SM FEW017 BKN035
     FM260000 27007KT P6SM SCT050
     FM260600 27005KT P6SM SKC
     FM261300 34008KT P6SM FEW060
     FM261700 02007KT P6SM SKC=

USA.gov is the U.S. government's official web portal to all federal, state and local government web resources and services.